Select Airport:
Chesapeake Regional Airport
Last updated: 14 minutes ago
Flight conditions: VFR
Visibility: 10.0 statute miles
Sky Conditions:
   Scattered clouds at 4000 feet
   Overcast at 5000 feet
Weather conditions: Light drizzle
Wind From: 20°
Wind speed: 7 knots (8.05 mph)
Temperature: 6.2°C (43.16°F)
Dew Point: 5.1°C (41.18°F)
Altimiter setting: 30.13 in-hg
WX phone: 1-757-204-4290
WX freq: 123.675 MHz
Runway 5
   Crosswind component: 3.5 knots (4.03 mph)
   Headwind component: 6.06 knots (6.97 mph)
KCPK 152235Z AUTO 02007KT 10SM -DZ SCT040 OVC050 06/05 A3013 RMK AO2 T00620051
FOR REFERENCE USE ONLY, DATA MAY NOT BE CURRENT.
ALWAYS CHECK FOR UP TO DATE INFORMATION.